Time;durP1;ratioP1;P1;durP2;ratioP2;P2;SDS_P1;SDS_P2;PMS_P1;PMS_P2;Temp;Humidity;BMP_temperature;BMP_pressure;BME280_temperature;BME280_humidity;BME280_pressure;Samples;Min_cycle;Max_cycle;Signal;HPM_P1;HPM_P2
2024/02/29 00:00:40;;;;;;;9.63;5.43;;;;;4.10;98833.00;;;;4843877;29;20515;-66
2024/02/29 00:03:08;;;;;;;10.77;5.55;;;;;4.10;98835.00;;;;4843749;29;20054;-66
2024/02/29 00:05:36;;;;;;;8.10;5.25;;;;;4.00;98826.00;;;;4842940;29;20050;-66
2024/02/29 00:08:04;;;;;;;7.60;4.80;;;;;4.00;98822.00;;;;4842424;29;20143;-66
2024/02/29 00:10:30;;;;;;;7.28;4.93;;;;;3.90;98818.00;;;;4843928;29;20534;-66
2024/02/29 00:12:57;;;;;;;7.63;5.07;;;;;4.10;98830.00;;;;4844228;29;20050;-66
2024/02/29 00:15:24;;;;;;;9.63;6.18;;;;;4.20;98815.00;;;;4845686;29;20083;-66
2024/02/29 00:17:51;;;;;;;8.30;5.18;;;;;4.20;98814.00;;;;4845461;29;20057;-66
2024/02/29 00:20:18;;;;;;;10.05;5.65;;;;;4.20;98808.00;;;;4843540;29;20046;-66
2024/02/29 00:22:46;;;;;;;9.43;5.28;;;;;4.10;98808.00;;;;4843143;29;20092;-67
2024/02/29 00:25:12;;;;;;;8.63;5.47;;;;;4.00;98798.00;;;;4842833;29;20128;-67
2024/02/29 00:27:39;;;;;;;8.48;5.50;;;;;4.00;98804.00;;;;4841727;29;20057;-67
2024/02/29 00:30:06;;;;;;;7.82;5.28;;;;;4.00;98798.00;;;;4842080;29;20160;-67
2024/02/29 00:32:33;;;;;;;8.88;5.78;;;;;4.00;98796.00;;;;4842878;29;20049;-68
2024/02/29 00:35:00;;;;;;;8.75;5.85;;;;;4.00;98797.00;;;;4841885;29;20385;-68
2024/02/29 00:37:28;;;;;;;9.63;6.03;;;;;4.00;98798.00;;;;4841788;29;20397;-66
2024/02/29 00:39:55;;;;;;;11.65;6.85;;;;;4.00;98791.00;;;;4842834;29;20552;-66
2024/02/29 00:42:22;;;;;;;9.93;5.43;;;;;4.00;98792.00;;;;4842860;29;20052;-65
2024/02/29 00:44:48;;;;;;;9.07;5.50;;;;;4.10;98799.00;;;;4841765;29;20126;-65
2024/02/29 00:47:15;;;;;;;12.52;7.38;;;;;4.20;98793.00;;;;4842230;29;20057;-65
2024/02/29 00:49:41;;;;;;;13.32;7.78;;;;;4.10;98785.00;;;;4842832;29;20080;-65
2024/02/29 00:52:08;;;;;;;10.57;6.45;;;;;4.10;98795.00;;;;4842504;29;20495;-65
2024/02/29 00:54:35;;;;;;;12.88;6.82;;;;;4.10;98794.00;;;;4842964;29;20054;-65
2024/02/29 00:57:02;;;;;;;9.75;6.60;;;;;4.00;98775.00;;;;4841505;29;20487;-65
2024/02/29 00:59:29;;;;;;;12.88;7.32;;;;;4.10;98780.00;;;;4842712;29;20050;-65
2024/02/29 01:01:55;;;;;;;12.07;7.18;;;;;4.20;98780.00;;;;4842525;29;20050;-65
2024/02/29 01:04:23;;;;;;;13.15;7.63;;;;;4.20;98775.00;;;;4841759;29;20049;-65
2024/02/29 01:06:50;;;;;;;18.65;9.77;;;;;4.20;98773.00;;;;4842171;29;20098;-65
2024/02/29 01:09:17;;;;;;;20.67;10.35;;;;;4.20;98771.00;;;;4843642;29;20054;-65
2024/02/29 01:11:44;;;;;;;17.02;9.00;;;;;4.20;98767.00;;;;4857423;29;20045;-65
2024/02/29 01:14:11;;;;;;;13.20;7.43;;;;;4.20;98768.00;;;;4842647;29;20046;-65
2024/02/29 01:16:37;;;;;;;14.32;7.75;;;;;4.30;98763.00;;;;4842701;29;20128;-65
2024/02/29 01:19:06;;;;;;;12.13;7.30;;;;;4.20;98758.00;;;;4843233;29;20403;-66
2024/02/29 01:21:33;;;;;;;15.60;7.65;;;;;4.10;98743.00;;;;4856640;29;20053;-66
2024/02/29 01:23:59;;;;;;;12.60;6.78;;;;;4.10;98753.00;;;;4842692;29;20513;-66
2024/02/29 01:26:26;;;;;;;14.00;7.63;;;;;4.00;98746.00;;;;4842328;29;20042;-66
2024/02/29 01:28:52;;;;;;;13.85;7.97;;;;;4.00;98739.00;;;;4842323;29;20456;-66
2024/02/29 01:31:19;;;;;;;13.00;7.22;;;;;4.00;98743.00;;;;4842983;29;20128;-66
2024/02/29 01:33:46;;;;;;;11.65;6.55;;;;;4.00;98744.00;;;;4841583;29;20133;-66
2024/02/29 01:36:13;;;;;;;10.57;6.97;;;;;4.00;98741.00;;;;4842844;29;20137;-65
2024/02/29 01:38:40;;;;;;;15.50;7.45;;;;;4.00;98737.00;;;;4845948;29;20166;-65
2024/02/29 01:41:06;;;;;;;14.55;8.02;;;;;4.00;98728.00;;;;4846298;29;20070;-65
2024/02/29 01:43:33;;;;;;;12.82;6.70;;;;;3.90;98724.00;;;;4846461;29;20099;-66
2024/02/29 01:46:10;;;;;;;12.73;7.22;;;;;3.80;98716.00;;;;4846158;29;20414;-66
2024/02/29 01:48:37;;;;;;;16.60;8.35;;;;;3.70;98712.00;;;;4846447;29;20050;-65
2024/02/29 01:51:05;;;;;;;16.80;8.82;;;;;3.70;98709.00;;;;4859843;29;20065;-66
2024/02/29 01:53:32;;;;;;;19.77;9.07;;;;;3.80;98703.00;;;;4845672;29;20050;-69
2024/02/29 01:56:00;;;;;;;25.98;10.05;;;;;3.80;98709.00;;;;4845420;29;20488;-68
2024/02/29 01:58:28;;;;;;;24.17;10.55;;;;;3.90;98700.00;;;;4845362;29;20057;-69
2024/02/29 02:00:55;;;;;;;25.08;11.30;;;;;3.80;98696.00;;;;4846200;29;20125;-68
2024/02/29 02:03:22;;;;;;;21.80;10.70;;;;;3.70;98697.00;;;;4861812;29;20073;-67
2024/02/29 02:05:48;;;;;;;28.90;11.63;;;;;3.60;98700.00;;;;4846927;29;20050;-67
2024/02/29 02:08:15;;;;;;;29.92;11.65;;;;;3.60;98696.00;;;;4860847;29;20622;-66
2024/02/29 02:10:42;;;;;;;36.05;12.88;;;;;3.70;98691.00;;;;4846451;29;20057;-67
2024/02/29 02:13:09;;;;;;;34.72;13.60;;;;;3.70;98691.00;;;;4860739;29;20050;-67
2024/02/29 02:15:36;;;;;;;36.78;15.68;;;;;3.70;98689.00;;;;4846724;29;20077;-65
2024/02/29 02:18:03;;;;;;;42.38;15.70;;;;;3.70;98691.00;;;;4846222;29;20050;-66
2024/02/29 02:20:30;;;;;;;45.25;15.52;;;;;3.70;98694.00;;;;4830224;29;20050;-66
2024/02/29 02:22:56;;;;;;;40.60;15.18;;;;;3.70;98689.00;;;;4845104;29;20049;-66
2024/02/29 02:25:23;;;;;;;43.53;15.80;;;;;3.80;98689.00;;;;4846748;29;20045;-66
2024/02/29 02:27:49;;;;;;;68.20;18.25;;;;;3.70;98682.00;;;;4845794;29;20120;-66
2024/02/29 02:30:16;;;;;;;58.72;17.45;;;;;3.60;98673.00;;;;4844957;29;20102;-66
2024/02/29 02:32:44;;;;;;;49.45;17.73;;;;;3.50;98671.00;;;;4845786;29;20129;-66
2024/02/29 02:35:10;;;;;;;48.53;16.45;;;;;3.60;98666.00;;;;4860426;29;20058;-66
2024/02/29 02:37:38;;;;;;;50.95;17.42;;;;;3.60;98669.00;;;;4846061;29;20465;-66
2024/02/29 02:40:06;;;;;;;43.35;16.80;;;;;3.60;98676.00;;;;4845478;29;20114;-65
2024/02/29 02:42:33;;;;;;;46.33;17.35;;;;;3.80;98666.00;;;;4829142;29;20058;-65
2024/02/29 02:44:59;;;;;;;45.97;16.90;;;;;3.90;98659.00;;;;4846225;29;20491;-65
2024/02/29 02:47:26;;;;;;;48.45;17.73;;;;;3.80;98667.00;;;;4845362;29;20503;-65
2024/02/29 02:49:53;;;;;;;47.97;17.70;;;;;3.80;98656.00;;;;4844072;29;20056;-65
2024/02/29 02:52:19;;;;;;;45.55;19.45;;;;;3.90;98653.00;;;;4845447;29;20042;-65
2024/02/29 02:54:46;;;;;;;50.67;18.35;;;;;3.90;98651.00;;;;4859918;29;20420;-65
2024/02/29 02:57:13;;;;;;;41.40;17.00;;;;;3.90;98644.00;;;;4845114;29;20050;-67
2024/02/29 02:59:39;;;;;;;42.90;18.02;;;;;4.00;98643.00;;;;4845567;29;20053;-67
2024/02/29 03:02:06;;;;;;;36.67;17.33;;;;;4.00;98648.00;;;;4843948;29;20046;-67
2024/02/29 03:04:33;;;;;;;35.65;17.15;;;;;4.00;98644.00;;;;4845583;29;20133;-66
2024/02/29 03:06:59;;;;;;;35.58;16.98;;;;;3.90;98636.00;;;;4844577;29;20121;-66
2024/02/29 03:09:26;;;;;;;40.03;16.30;;;;;3.90;98645.00;;;;4845534;29;20480;-67
2024/02/29 03:11:53;;;;;;;38.58;18.30;;;;;3.90;98635.00;;;;4843706;29;20578;-66
2024/02/29 03:14:19;;;;;;;40.70;17.45;;;;;4.10;98626.00;;;;4844846;29;20133;-66
2024/02/29 03:16:46;;;;;;;34.42;16.17;;;;;4.30;98623.00;;;;4843648;29;20141;-66
2024/02/29 03:19:12;;;;;;;31.13;16.42;;;;;4.40;98616.00;;;;4844825;29;20077;-65
2024/02/29 03:21:39;;;;;;;28.38;15.45;;;;;4.50;98608.00;;;;4843263;29;20519;-64
2024/02/29 03:24:06;;;;;;;25.13;13.93;;;;;4.50;98614.00;;;;4858850;29;20107;-64
2024/02/29 03:26:33;;;;;;;29.65;15.73;;;;;4.60;98604.00;;;;4858722;29;20057;-64
2024/02/29 03:28:59;;;;;;;28.52;14.02;;;;;4.60;98599.00;;;;4844378;29;20128;-64
2024/02/29 03:31:26;;;;;;;26.65;15.10;;;;;4.70;98600.00;;;;4844264;29;20098;-64
2024/02/29 03:33:52;;;;;;;30.02;15.10;;;;;4.70;98591.00;;;;4844164;29;20137;-64
2024/02/29 03:36:19;;;;;;;27.85;13.88;;;;;4.70;98592.00;;;;4844365;29;20049;-64
2024/02/29 03:38:46;;;;;;;26.73;14.27;;;;;4.40;98587.00;;;;4858671;29;20101;-64
2024/02/29 03:41:12;;;;;;;25.15;13.75;;;;;4.20;98592.00;;;;4843493;29;20516;-66
2024/02/29 03:43:39;;;;;;;26.80;14.02;;;;;4.20;98589.00;;;;4843001;29;20054;-68
2024/02/29 03:46:06;;;;;;;24.40;13.50;;;;;4.40;98593.00;;;;4842691;29;20050;-68
2024/02/29 03:48:32;;;;;;;29.30;14.70;;;;;4.50;98597.00;;;;4844154;29;20083;-69
2024/02/29 03:50:59;;;;;;;28.08;14.55;;;;;4.50;98587.00;;;;4843664;29;20045;-68
2024/02/29 03:53:26;;;;;;;27.40;14.70;;;;;4.50;98593.00;;;;4843100;29;20050;-69
2024/02/29 03:55:52;;;;;;;32.60;14.45;;;;;4.60;98589.00;;;;4844302;29;20053;-69
2024/02/29 03:58:19;;;;;;;25.75;13.35;;;;;4.60;98596.00;;;;4842569;29;20072;-68
2024/02/29 04:00:48;;;;;;;28.40;14.55;;;;;4.60;98588.00;;;;4842288;29;20042;-68
2024/02/29 04:03:15;;;;;;;25.30;14.00;;;;;4.60;98597.00;;;;4842319;29;20102;-68
2024/02/29 04:05:41;;;;;;;24.95;14.63;;;;;4.70;98588.00;;;;4842437;29;20110;-67
2024/02/29 04:08:11;;;;;;;28.95;14.48;;;;;4.70;98595.00;;;;4843595;29;20046;-67
2024/02/29 04:10:39;;;;;;;31.05;14.73;;;;;4.70;98582.00;;;;4842554;29;20106;-67
2024/02/29 04:13:05;;;;;;;31.92;15.68;;;;;4.70;98580.00;;;;4843399;29;20065;-67
2024/02/29 04:15:32;;;;;;;29.10;15.52;;;;;4.60;98591.00;;;;4842995;29;20084;-66
2024/02/29 04:18:00;;;;;;;29.25;14.55;;;;;4.50;98589.00;;;;4843123;29;20432;-66
2024/02/29 04:20:26;;;;;;;30.88;15.57;;;;;4.40;98587.00;;;;4843433;29;20048;-68
2024/02/29 04:22:54;;;;;;;33.42;14.40;;;;;4.40;98582.00;;;;4844481;29;20046;-68
2024/02/29 04:25:22;;;;;;;35.13;14.52;;;;;4.40;98583.00;;;;4844824;29;20143;-68
2024/02/29 04:27:50;;;;;;;30.40;14.35;;;;;4.30;98571.00;;;;4843868;29;20538;-68
2024/02/29 04:30:18;;;;;;;32.33;14.32;;;;;4.20;98572.00;;;;4842539;29;20085;-68
2024/02/29 04:32:45;;;;;;;48.25;14.40;;;;;4.10;98574.00;;;;4842312;29;20066;-69
2024/02/29 04:35:11;;;;;;;22.40;12.07;;;;;4.10;98576.00;;;;4843712;29;20046;-68
2024/02/29 04:37:38;;;;;;;32.90;13.77;;;;;3.90;98580.00;;;;4842151;29;20057;-68
2024/02/29 04:40:07;;;;;;;27.15;13.15;;;;;3.80;98577.00;;;;4843756;29;20056;-68
2024/02/29 04:42:37;;;;;;;24.98;11.95;;;;;3.80;98577.00;;;;4842124;29;20454;-68
2024/02/29 04:45:04;;;;;;;43.22;13.07;;;;;3.80;98573.00;;;;4857707;29;20057;-68
2024/02/29 04:47:31;;;;;;;28.23;12.85;;;;;3.70;98563.00;;;;4843563;29;20050;-68
2024/02/29 04:49:58;;;;;;;23.95;12.73;;;;;3.70;98560.00;;;;4841861;29;20046;-69
2024/02/29 04:52:25;;;;;;;29.58;13.02;;;;;3.80;98558.00;;;;4842679;29;20046;-68
2024/02/29 04:54:52;;;;;;;24.23;13.27;;;;;3.70;98558.00;;;;4843431;29;20060;-68
2024/02/29 04:57:18;;;;;;;25.67;14.98;;;;;3.80;98548.00;;;;4856958;29;20057;-68
2024/02/29 04:59:45;;;;;;;21.42;11.75;;;;;3.90;98556.00;;;;4841829;29;20053;-68
2024/02/29 05:02:12;;;;;;;28.67;12.27;;;;;4.00;98548.00;;;;4843163;29;20128;-68
2024/02/29 05:04:39;;;;;;;35.95;12.65;;;;;3.90;98561.00;;;;4841647;29;20053;-68
2024/02/29 05:07:06;;;;;;;25.08;12.38;;;;;3.90;98557.00;;;;4843288;29;20056;-69
2024/02/29 05:09:33;;;;;;;75.78;15.43;;;;;3.90;98551.00;;;;4842172;29;20050;-69
2024/02/29 05:11:59;;;;;;;51.30;13.68;;;;;3.80;98541.00;;;;4829880;29;20077;-68
2024/02/29 05:14:26;;;;;;;39.72;13.95;;;;;3.80;98543.00;;;;4845822;29;20054;-68
2024/02/29 05:16:56;;;;;;;32.28;13.82;;;;;3.90;98530.00;;;;4845376;29;20077;-66
2024/02/29 05:19:23;;;;;;;69.10;14.82;;;;;3.90;98537.00;;;;4846680;29;20058;-66
2024/02/29 05:21:51;;;;;;;31.67;12.75;;;;;3.80;98529.00;;;;4846290;29;20393;-66
2024/02/29 05:24:18;;;;;;;63.58;14.13;;;;;3.70;98522.00;;;;4845575;29;20498;-66
2024/02/29 05:26:45;;;;;;;42.45;14.38;;;;;3.70;98526.00;;;;4846984;29;20487;-68
2024/02/29 05:29:11;;;;;;;33.50;13.30;;;;;3.70;98520.00;;;;4846384;29;20074;-68
2024/02/29 05:31:38;;;;;;;25.52;12.52;;;;;3.60;98525.00;;;;4846709;29;20080;-68
2024/02/29 05:34:05;;;;;;;22.65;13.25;;;;;3.60;98518.00;;;;4845495;29;20053;-67
2024/02/29 05:36:31;;;;;;;35.92;15.93;;;;;3.60;98523.00;;;;4845203;29;20050;-68
2024/02/29 05:38:58;;;;;;;28.98;12.15;;;;;3.50;98522.00;;;;4846419;29;20050;-68
2024/02/29 05:41:25;;;;;;;22.38;12.27;;;;;3.60;98519.00;;;;4844851;29;20057;-68
2024/02/29 05:43:51;;;;;;;43.35;13.75;;;;;3.50;98522.00;;;;4845499;29;20050;-66
2024/02/29 05:46:18;;;;;;;23.73;12.65;;;;;3.60;98509.00;;;;4844926;29;20057;-66
2024/02/29 05:48:45;;;;;;;22.02;11.48;;;;;3.40;98518.00;;;;4845985;29;20046;-68
2024/02/29 05:51:11;;;;;;;31.77;11.77;;;;;3.30;98505.00;;;;4845744;29;20057;-68
2024/02/29 05:53:38;;;;;;;22.33;12.23;;;;;3.10;98505.00;;;;4845866;29;20175;-68
2024/02/29 05:56:05;;;;;;;21.42;12.85;;;;;3.30;98514.00;;;;4846238;29;20050;-68
2024/02/29 05:58:31;;;;;;;28.75;12.77;;;;;3.50;98507.00;;;;4845636;29;20058;-68
2024/02/29 06:00:58;;;;;;;22.35;12.27;;;;;3.70;98515.00;;;;4844334;29;20068;-68
2024/02/29 06:03:25;;;;;;;23.30;12.73;;;;;3.70;98504.00;;;;4860076;29;20073;-68
2024/02/29 06:05:52;;;;;;;33.28;13.57;;;;;3.80;98506.00;;;;4846255;29;20089;-68
2024/02/29 06:08:18;;;;;;;22.98;11.82;;;;;3.80;98505.00;;;;4846474;29;20050;-68
2024/02/29 06:10:49;;;;;;;25.50;15.00;;;;;3.70;98498.00;;;;4844393;29;20071;-68
2024/02/29 06:13:16;;;;;;;28.80;12.68;;;;;3.70;98492.00;;;;4830214;29;20054;-68
2024/02/29 06:15:42;;;;;;;28.20;12.43;;;;;3.80;98497.00;;;;4845150;29;20426;-67
2024/02/29 06:18:10;;;;;;;46.67;12.75;;;;;3.90;98500.00;;;;4860212;29;20085;-68
2024/02/29 06:20:37;;;;;;;22.27;11.77;;;;;3.90;98498.00;;;;4844972;29;20098;-68
2024/02/29 06:23:04;;;;;;;25.65;11.82;;;;;3.90;98498.00;;;;4845875;29;20046;-68
2024/02/29 06:25:31;;;;;;;24.17;11.57;;;;;3.90;98499.00;;;;4859736;29;20050;-69
2024/02/29 06:27:58;;;;;;;22.25;11.60;;;;;3.90;98508.00;;;;4845455;29;20053;-68
2024/02/29 06:30:31;;;;;;;22.60;11.25;;;;;3.90;98499.00;;;;4844102;29;20145;-69
2024/02/29 06:32:58;;;;;;;31.45;11.43;;;;;3.90;98490.00;;;;4845593;29;20046;-69
2024/02/29 06:35:26;;;;;;;24.20;11.65;;;;;4.00;98501.00;;;;4843681;29;20443;-67
2024/02/29 06:37:52;;;;;;;40.20;12.32;;;;;3.90;98493.00;;;;4858819;29;20077;-69
2024/02/29 06:40:21;;;;;;;32.10;12.25;;;;;3.80;98498.00;;;;4845282;29;20141;-69
2024/02/29 06:42:48;;;;;;;20.35;11.23;;;;;3.70;98487.00;;;;4843756;29;20049;-68
2024/02/29 06:45:16;;;;;;;27.70;12.18;;;;;3.60;98497.00;;;;4844878;29;20415;-68
2024/02/29 06:47:43;;;;;;;22.63;9.73;;;;;3.50;98488.00;;;;4845028;29;20077;-68
2024/02/29 06:50:11;;;;;;;27.85;10.65;;;;;3.40;98489.00;;;;4845258;29;20053;-68
2024/02/29 06:52:37;;;;;;;21.98;11.13;;;;;3.50;98492.00;;;;4843505;29;20488;-68
2024/02/29 06:55:09;;;;;;;21.02;10.50;;;;;3.60;98493.00;;;;4845160;29;20086;-69
2024/02/29 06:57:36;;;;;;;23.88;11.27;;;;;3.60;98493.00;;;;4844760;29;20133;-68
2024/02/29 07:00:05;;;;;;;30.92;10.93;;;;;3.60;98491.00;;;;4858549;29;20053;-68
2024/02/29 07:02:32;;;;;;;56.05;12.88;;;;;3.60;98494.00;;;;4844486;29;20103;-68
2024/02/29 07:04:59;;;;;;;27.02;11.32;;;;;3.60;98485.00;;;;4845082;29;20512;-69
2024/02/29 07:07:26;;;;;;;34.58;12.05;;;;;3.70;98480.00;;;;4825919;29;20042;-69
2024/02/29 07:09:54;;;;;;;47.50;18.67;;;;;3.70;98486.00;;;;4826591;29;20412;-69
2024/02/29 07:12:21;;;;;;;47.13;12.73;;;;;3.60;98477.00;;;;4826053;29;20080;-68
2024/02/29 07:14:47;;;;;;;71.80;14.43;;;;;3.70;98476.00;;;;4839886;29;20086;-68
2024/02/29 07:17:14;;;;;;;24.67;12.60;;;;;3.80;98469.00;;;;4826322;29;20046;-68
2024/02/29 07:19:40;;;;;;;23.38;12.43;;;;;3.90;98477.00;;;;4839952;29;20103;-68
2024/02/29 07:22:07;;;;;;;18.80;11.43;;;;;4.00;98473.00;;;;4825736;29;20051;-69
2024/02/29 07:24:34;;;;;;;24.60;11.50;;;;;4.10;98473.00;;;;4825651;29;20107;-69
2024/02/29 07:27:01;;;;;;;26.20;12.98;;;;;4.20;98471.00;;;;4825900;29;20078;-69
2024/02/29 07:29:28;;;;;;;22.13;12.57;;;;;4.10;98471.00;;;;4824427;29;20046;-68
2024/02/29 07:31:55;;;;;;;21.38;12.27;;;;;4.10;98462.00;;;;4825434;29;20042;-68
2024/02/29 07:34:22;;;;;;;19.10;11.35;;;;;4.20;98466.00;;;;4833422;29;20579;-68
2024/02/29 07:36:48;;;;;;;21.98;11.65;;;;;4.30;98464.00;;;;4843779;29;20042;-68
2024/02/29 07:39:16;;;;;;;22.27;11.60;;;;;4.20;98458.00;;;;4858431;29;20050;-69
2024/02/29 07:41:43;;;;;;;22.27;11.93;;;;;4.20;98465.00;;;;4843948;29;20506;-69
2024/02/29 07:44:10;;;;;;;23.63;13.63;;;;;4.30;98455.00;;;;4843576;29;20084;-69
2024/02/29 07:46:36;;;;;;;24.98;11.77;;;;;4.40;98461.00;;;;4858174;29;20046;-69
2024/02/29 07:49:03;;;;;;;25.38;13.27;;;;;4.50;98462.00;;;;4858260;29;20052;-69
2024/02/29 07:51:30;;;;;;;23.88;13.60;;;;;4.60;98453.00;;;;4827930;29;20564;-69
2024/02/29 07:53:57;;;;;;;23.27;13.57;;;;;4.80;98457.00;;;;4842272;29;20049;-69
2024/02/29 07:56:23;;;;;;;22.67;12.70;;;;;4.90;98458.00;;;;4843603;29;20478;-69
2024/02/29 07:58:52;;;;;;;28.13;12.85;;;;;5.00;98450.00;;;;4843924;29;20046;-69
2024/02/29 08:01:19;;;;;;;36.75;13.80;;;;;5.00;98443.00;;;;4843603;29;20046;-67
2024/02/29 08:03:46;;;;;;;22.35;12.90;;;;;5.10;98437.00;;;;4842320;29;20054;-68
2024/02/29 08:06:12;;;;;;;23.27;12.65;;;;;4.80;98446.00;;;;4843240;29;20050;-68
2024/02/29 08:08:39;;;;;;;25.42;13.93;;;;;4.60;98440.00;;;;4842073;29;20056;-68
2024/02/29 08:11:07;;;;;;;27.45;14.18;;;;;4.60;98439.00;;;;4857129;29;20058;-68
2024/02/29 08:13:33;;;;;;;27.83;13.63;;;;;4.70;98437.00;;;;4843187;29;20232;-68
2024/02/29 08:16:00;;;;;;;24.35;13.20;;;;;4.80;98439.00;;;;4843646;29;20138;-68
2024/02/29 08:18:28;;;;;;;22.35;12.95;;;;;4.90;98442.00;;;;4857287;29;20153;-68
2024/02/29 08:20:55;;;;;;;26.60;14.10;;;;;5.00;98447.00;;;;4857342;29;20069;-67
2024/02/29 08:23:24;;;;;;;22.20;13.50;;;;;4.90;98440.00;;;;4843034;29;20470;-68
2024/02/29 08:25:51;;;;;;;29.15;14.68;;;;;4.70;98436.00;;;;4841833;29;20054;-68
2024/02/29 08:28:18;;;;;;;24.80;14.23;;;;;4.60;98432.00;;;;4857265;29;20072;-70
2024/02/29 08:30:45;;;;;;;23.67;13.48;;;;;4.80;98443.00;;;;4842816;29;20098;-69
2024/02/29 08:33:12;;;;;;;27.50;14.27;;;;;4.90;98437.00;;;;4841808;29;20396;-71
2024/02/29 08:35:39;;;;;;;26.88;15.35;;;;;4.70;98431.00;;;;4842653;29;20049;-70
2024/02/29 08:38:06;;;;;;;25.17;14.98;;;;;4.80;98430.00;;;;4841546;29;20046;-67
2024/02/29 08:40:35;;;;;;;24.45;14.27;;;;;4.90;98437.00;;;;4843099;29;20538;-67
2024/02/29 08:43:03;;;;;;;24.48;14.25;;;;;5.00;98439.00;;;;4842971;29;20481;-69
2024/02/29 08:45:29;;;;;;;27.15;16.05;;;;;5.20;98436.00;;;;4826415;29;20059;-69
2024/02/29 08:47:56;;;;;;;26.27;14.80;;;;;5.20;98427.00;;;;4843127;29;20128;-68
2024/02/29 08:50:23;;;;;;;36.42;15.00;;;;;5.20;98423.00;;;;4841909;29;20054;-67
2024/02/29 08:52:50;;;;;;;27.65;15.60;;;;;5.00;98426.00;;;;4826420;29;20054;-69
2024/02/29 08:55:16;;;;;;;27.08;15.30;;;;;5.10;98419.00;;;;4842671;29;20046;-67
2024/02/29 08:57:44;;;;;;;31.02;15.30;;;;;5.20;98413.00;;;;4826597;29;20098;-68
2024/02/29 09:00:11;;;;;;;30.83;15.27;;;;;5.00;98410.00;;;;4843844;29;20103;-68
2024/02/29 09:02:38;;;;;;;27.27;15.98;;;;;4.80;98409.00;;;;4843152;29;20049;-69
2024/02/29 09:05:05;;;;;;;52.97;16.25;;;;;4.80;98399.00;;;;4827747;29;20516;-68
2024/02/29 09:07:41;;;;;;;29.10;15.15;;;;;4.90;98396.00;;;;4824068;29;20504;-69
2024/02/29 09:10:09;;;;;;;27.48;15.13;;;;;5.00;98399.00;;;;4824836;29;20488;-68
2024/02/29 09:12:36;;;;;;;28.92;17.00;;;;;5.10;98392.00;;;;4838146;29;20135;-68
2024/02/29 09:15:03;;;;;;;25.70;15.10;;;;;5.30;98400.00;;;;4838949;29;20138;-68
2024/02/29 09:17:29;;;;;;;34.25;18.17;;;;;5.50;98392.00;;;;4824645;29;20079;-68
2024/02/29 09:19:56;;;;;;;27.17;15.48;;;;;5.70;98395.00;;;;4838620;29;20057;-68
2024/02/29 09:22:23;;;;;;;25.80;14.93;;;;;5.70;98397.00;;;;4824019;29;20046;-68
2024/02/29 09:24:49;;;;;;;28.05;15.48;;;;;5.90;98390.00;;;;4824964;29;20103;-68
2024/02/29 09:27:16;;;;;;;27.20;15.70;;;;;6.20;98388.00;;;;4823269;29;20058;-68
2024/02/29 09:29:43;;;;;;;24.15;14.73;;;;;6.30;98391.00;;;;4823171;29;20058;-68
2024/02/29 09:32:12;;;;;;;26.77;15.25;;;;;6.30;98385.00;;;;4824599;29;20057;-70
2024/02/29 09:34:40;;;;;;;27.20;15.38;;;;;6.30;98392.00;;;;4841151;29;20526;-72
2024/02/29 09:37:13;;;;;;;27.80;14.55;;;;;5.80;98371.00;;;;4842870;29;20038;-69
2024/02/29 09:39:40;;;;;;;26.27;15.73;;;;;5.50;98371.00;;;;4842590;29;20057;-69
2024/02/29 09:42:09;;;;;;;25.90;14.95;;;;;5.40;98375.00;;;;4841329;29;20058;-69
2024/02/29 09:44:42;;;;;;;24.45;14.30;;;;;5.60;98370.00;;;;4842343;29;20419;-69
2024/02/29 09:47:12;;;;;;;24.23;14.40;;;;;5.90;98365.00;;;;4841343;29;20091;-69
2024/02/29 09:49:39;;;;;;;25.75;15.45;;;;;6.20;98369.00;;;;4825989;29;20083;-68
2024/02/29 09:52:08;;;;;;;25.75;14.95;;;;;6.50;98358.00;;;;4842467;29;20041;-69
2024/02/29 09:54:39;;;;;;;27.17;16.13;;;;;6.40;98355.00;;;;4826844;29;20050;-69
2024/02/29 09:57:10;;;;;;;30.50;17.60;;;;;6.30;98353.00;;;;4842850;29;20427;-72
2024/02/29 09:59:41;;;;;;;26.15;15.90;;;;;6.20;98353.00;;;;4845602;29;20049;-70
2024/02/29 10:02:20;;;;;;;28.02;15.23;;;;;6.50;98351.00;;;;4859622;29;20054;-70
2024/02/29 10:04:48;;;;;;;26.95;15.35;;;;;6.70;98355.00;;;;4844960;29;20064;-69
2024/02/29 10:07:15;;;;;;;27.02;15.70;;;;;6.90;98356.00;;;;4861132;29;20069;-70
2024/02/29 10:09:42;;;;;;;23.90;14.93;;;;;7.00;98360.00;;;;4847996;29;20436;-69
2024/02/29 10:12:15;;;;;;;30.10;17.05;;;;;7.10;98343.00;;;;4846264;29;20053;-68
2024/02/29 10:14:42;;;;;;;24.35;14.65;;;;;7.30;98339.00;;;;4847842;29;20075;-68
2024/02/29 10:17:11;;;;;;;26.75;15.73;;;;;7.60;98334.00;;;;4846712;29;20061;-68
2024/02/29 10:19:40;;;;;;;26.40;15.95;;;;;7.80;98333.00;;;;4860652;29;20057;-68
2024/02/29 10:22:07;;;;;;;31.00;15.88;;;;;7.80;98331.00;;;;4859625;29;20084;-68
2024/02/29 10:24:34;;;;;;;26.00;15.27;;;;;7.80;98335.00;;;;4844489;29;20046;-67
2024/02/29 10:27:02;;;;;;;24.35;14.05;;;;;7.90;98313.00;;;;4846390;29;20049;-68
2024/02/29 10:29:29;;;;;;;24.52;14.45;;;;;8.00;98313.00;;;;4845932;29;20484;-69
2024/02/29 10:31:58;;;;;;;21.48;13.80;;;;;8.00;98313.00;;;;4843943;29;20053;-69
2024/02/29 10:34:24;;;;;;;23.42;14.65;;;;;7.90;98309.00;;;;4859129;29;20054;-70
2024/02/29 10:36:55;;;;;;;22.83;14.23;;;;;7.90;98306.00;;;;4829313;29;20053;-68
2024/02/29 10:39:22;;;;;;;24.70;15.00;;;;;8.00;98305.00;;;;4843827;29;20069;-69
2024/02/29 10:41:49;;;;;;;25.67;16.67;;;;;8.00;98297.00;;;;4828494;29;20081;-68
2024/02/29 10:44:24;;;;;;;25.88;15.98;;;;;8.30;98298.00;;;;4843801;29;20061;-68
2024/02/29 10:46:55;;;;;;;25.55;14.50;;;;;8.40;98297.00;;;;4829252;29;20061;-68
2024/02/29 10:49:29;;;;;;;27.60;14.57;;;;;8.50;98286.00;;;;4844002;29;20048;-68
2024/02/29 10:52:07;;;;;;;26.45;15.57;;;;;8.70;98282.00;;;;4843585;29;20085;-69
2024/02/29 10:54:39;;;;;;;22.10;13.93;;;;;8.80;98288.00;;;;4844445;29;20110;-68
2024/02/29 10:57:14;;;;;;;21.95;14.30;;;;;8.90;98273.00;;;;4843555;29;20088;-68
2024/02/29 10:59:49;;;;;;;20.58;13.45;;;;;8.90;98275.00;;;;4859634;29;20457;-67
2024/02/29 11:02:16;;;;;;;24.02;14.02;;;;;8.80;98275.00;;;;4858864;29;20087;-67
2024/02/29 11:04:43;;;;;;;22.05;13.40;;;;;8.90;98269.00;;;;4843247;29;20053;-67
2024/02/29 11:07:10;;;;;;;23.35;13.68;;;;;9.10;98248.00;;;;4844412;29;20080;-66
2024/02/29 11:09:37;;;;;;;19.33;12.50;;;;;9.20;98256.00;;;;4843636;29;20053;-67
2024/02/29 11:12:13;;;;;;;17.60;12.57;;;;;9.40;98250.00;;;;4828328;29;20073;-67
2024/02/29 11:14:44;;;;;;;23.52;13.70;;;;;9.60;98256.00;;;;4858448;29;20061;-66
2024/02/29 11:17:14;;;;;;;19.40;12.52;;;;;9.80;98249.00;;;;4843554;29;20556;-65
2024/02/29 11:19:41;;;;;;;18.75;13.32;;;;;10.00;98245.00;;;;4858640;29;20114;-68
2024/02/29 11:22:36;;;;;;;18.70;11.98;;;;;10.10;98237.00;;;;4858795;29;20122;-67
2024/02/29 11:25:09;;;;;;;19.13;12.40;;;;;10.20;98232.00;;;;4859500;29;20057;-66
2024/02/29 11:27:45;;;;;;;18.48;11.77;;;;;10.40;98229.00;;;;4858612;29;20064;-67
2024/02/29 11:30:16;;;;;;;19.50;13.02;;;;;10.50;98227.00;;;;4844723;29;20122;-65
2024/02/29 11:32:43;;;;;;;16.77;11.57;;;;;10.60;98226.00;;;;4843353;29;20056;-69
2024/02/29 11:35:11;;;;;;;16.25;11.77;;;;;10.60;98202.00;;;;4814289;29;20127;-69
2024/02/29 11:37:46;;;;;;;17.00;12.00;;;;;10.50;98192.00;;;;4825699;29;20114;-71
2024/02/29 11:40:15;;;;;;;15.93;10.90;;;;;10.70;98197.00;;;;4826663;29;20054;-68
2024/02/29 11:42:43;;;;;;;14.30;10.70;;;;;10.80;98195.00;;;;4840000;29;20053;-70
2024/02/29 11:45:23;;;;;;;17.42;10.98;;;;;11.00;98185.00;;;;4840173;29;20054;-71
2024/02/29 11:47:53;;;;;;;19.15;10.40;;;;;11.00;98186.00;;;;4827280;29;20110;-68
2024/02/29 11:50:29;;;;;;;17.00;11.20;;;;;11.20;98178.00;;;;4840200;29;20488;-67
2024/02/29 11:53:00;;;;;;;14.30;10.57;;;;;11.20;98170.00;;;;4826661;29;20050;-69
2024/02/29 11:55:27;;;;;;;15.02;10.68;;;;;11.30;98168.00;;;;4840450;29;20511;-70
2024/02/29 11:57:54;;;;;;;15.75;10.20;;;;;11.30;98172.00;;;;4824582;29;20504;-70
2024/02/29 12:00:20;;;;;;;15.55;10.15;;;;;11.40;98168.00;;;;4826129;29;20050;-68
2024/02/29 12:02:49;;;;;;;13.73;9.32;;;;;11.50;98161.00;;;;4824206;29;20103;-66
2024/02/29 12:05:16;;;;;;;15.93;11.23;;;;;11.60;98160.00;;;;4836546;29;20054;-67
2024/02/29 12:07:46;;;;;;;15.02;10.52;;;;;11.50;98154.00;;;;4824117;29;20117;-69
2024/02/29 12:10:12;;;;;;;14.73;10.40;;;;;11.60;98142.00;;;;4824969;29;20127;-67